sensor_id;sensor_type;location;lat;lon;timestamp;pressure;altitude;pressure_sealevel;temperature;humidity
35023;BME280;21214;44.912;8.204;2023-01-16T00:01:45;98778.16;;;2.97;100.00
35023;BME280;21214;44.912;8.204;2023-01-16T00:04:10;98771.03;;;2.87;100.00
35023;BME280;21214;44.912;8.204;2023-01-16T00:06:36;98770.03;;;2.77;100.00
35023;BME280;21214;44.912;8.204;2023-01-16T00:09:02;98761.97;;;2.69;100.00
35023;BME280;21214;44.912;8.204;2023-01-16T00:11:28;98761.34;;;2.66;100.00
35023;BME280;21214;44.912;8.204;2023-01-16T00:13:53;98746.78;;;2.63;100.00
35023;BME280;21214;44.912;8.204;2023-01-16T00:16:19;98745.13;;;2.62;100.00
35023;BME280;21214;44.912;8.204;2023-01-16T00:18:46;98741.78;;;2.60;100.00
35023;BME280;21214;44.912;8.204;2023-01-16T00:21:11;98737.84;;;2.55;100.00
35023;BME280;21214;44.912;8.204;2023-01-16T00:23:37;98732.06;;;2.51;100.00
35023;BME280;21214;44.912;8.204;2023-01-16T00:26:06;98730.03;;;2.55;100.00
35023;BME280;21214;44.912;8.204;2023-01-16T00:28:31;98726.41;;;2.57;100.00
35023;BME280;21214;44.912;8.204;2023-01-16T00:30:57;98722.03;;;2.58;100.00
35023;BME280;21214;44.912;8.204;2023-01-16T00:33:23;98727.81;;;2.61;100.00
35023;BME280;21214;44.912;8.204;2023-01-16T00:35:48;98719.06;;;2.62;100.00
35023;BME280;21214;44.912;8.204;2023-01-16T00:38:14;98713.47;;;2.56;100.00
35023;BME280;21214;44.912;8.204;2023-01-16T00:40:39;98701.03;;;2.48;100.00
35023;BME280;21214;44.912;8.204;2023-01-16T00:43:04;98703.38;;;2.40;100.00
35023;BME280;21214;44.912;8.204;2023-01-16T00:45:30;98707.13;;;2.36;100.00
35023;BME280;21214;44.912;8.204;2023-01-16T00:47:55;98694.28;;;2.22;100.00
35023;BME280;21214;44.912;8.204;2023-01-16T00:50:21;98685.41;;;2.00;100.00
35023;BME280;21214;44.912;8.204;2023-01-16T00:52:46;98680.22;;;2.00;100.00
35023;BME280;21214;44.912;8.204;2023-01-16T00:55:11;98679.06;;;1.81;100.00
35023;BME280;21214;44.912;8.204;2023-01-16T00:57:37;98666.81;;;1.70;100.00
35023;BME280;21214;44.912;8.204;2023-01-16T01:00:02;98671.19;;;1.70;100.00
35023;BME280;21214;44.912;8.204;2023-01-16T01:02:28;98667.47;;;1.61;100.00
35023;BME280;21214;44.912;8.204;2023-01-16T01:04:54;98673.41;;;1.63;100.00
35023;BME280;21214;44.912;8.204;2023-01-16T01:07:19;98677.75;;;1.62;100.00
35023;BME280;21214;44.912;8.204;2023-01-16T01:09:45;98675.00;;;1.53;100.00
35023;BME280;21214;44.912;8.204;2023-01-16T01:12:10;98675.69;;;1.55;100.00
35023;BME280;21214;44.912;8.204;2023-01-16T01:14:36;98672.09;;;1.45;100.00
35023;BME280;21214;44.912;8.204;2023-01-16T01:17:01;98678.25;;;1.18;100.00
35023;BME280;21214;44.912;8.204;2023-01-16T01:19:26;98671.69;;;1.00;100.00
35023;BME280;21214;44.912;8.204;2023-01-16T01:21:52;98673.28;;;0.90;100.00
35023;BME280;21214;44.912;8.204;2023-01-16T01:24:18;98676.09;;;0.87;100.00
35023;BME280;21214;44.912;8.204;2023-01-16T01:26:44;98670.06;;;0.87;100.00
35023;BME280;21214;44.912;8.204;2023-01-16T01:29:09;98660.28;;;0.90;100.00
35023;BME280;21214;44.912;8.204;2023-01-16T01:31:35;98652.59;;;0.89;100.00
35023;BME280;21214;44.912;8.204;2023-01-16T01:34:01;98649.91;;;0.90;100.00
35023;BME280;21214;44.912;8.204;2023-01-16T01:36:27;98643.88;;;0.77;100.00
35023;BME280;21214;44.912;8.204;2023-01-16T01:38:52;98638.47;;;0.80;100.00
35023;BME280;21214;44.912;8.204;2023-01-16T01:41:18;98632.25;;;0.70;100.00
35023;BME280;21214;44.912;8.204;2023-01-16T01:43:54;98642.75;;;0.81;100.00
35023;BME280;21214;44.912;8.204;2023-01-16T01:46:31;98636.41;;;0.85;100.00
35023;BME280;21214;44.912;8.204;2023-01-16T01:49:10;98632.53;;;0.91;100.00
35023;BME280;21214;44.912;8.204;2023-01-16T01:51:41;98629.13;;;0.90;100.00
35023;BME280;21214;44.912;8.204;2023-01-16T01:54:17;98626.53;;;0.90;100.00
35023;BME280;21214;44.912;8.204;2023-01-16T01:56:49;98616.22;;;0.89;100.00
35023;BME280;21214;44.912;8.204;2023-01-16T01:59:25;98610.44;;;0.85;100.00
35023;BME280;21214;44.912;8.204;2023-01-16T02:01:53;98605.03;;;0.88;100.00
35023;BME280;21214;44.912;8.204;2023-01-16T02:04:24;98596.50;;;0.86;100.00
35023;BME280;21214;44.912;8.204;2023-01-16T02:06:56;98586.94;;;0.87;100.00
35023;BME280;21214;44.912;8.204;2023-01-16T02:09:23;98581.34;;;0.93;100.00
35023;BME280;21214;44.912;8.204;2023-01-16T02:11:56;98578.66;;;0.81;100.00
35023;BME280;21214;44.912;8.204;2023-01-16T02:14:24;98580.09;;;0.86;100.00
35023;BME280;21214;44.912;8.204;2023-01-16T02:16:58;98572.41;;;0.84;100.00
35023;BME280;21214;44.912;8.204;2023-01-16T02:19:50;98572.19;;;0.87;100.00
35023;BME280;21214;44.912;8.204;2023-01-16T02:26:00;98551.19;;;0.90;100.00
35023;BME280;21214;44.912;8.204;2023-01-16T02:28:55;98559.75;;;0.67;100.00
35023;BME280;21214;44.912;8.204;2023-01-16T02:32:07;98552.47;;;0.59;100.00
35023;BME280;21214;44.912;8.204;2023-01-16T02:47:45;98539.84;;;0.29;100.00
35023;BME280;21214;44.912;8.204;2023-01-16T02:53:00;98532.34;;;0.37;100.00
35023;BME280;21214;44.912;8.204;2023-01-16T02:55:50;98532.25;;;0.39;100.00
35023;BME280;21214;44.912;8.204;2023-01-16T02:58:18;98530.91;;;0.33;100.00
35023;BME280;21214;44.912;8.204;2023-01-16T03:01:03;98526.88;;;0.29;100.00
35023;BME280;21214;44.912;8.204;2023-01-16T03:11:29;98519.78;;;0.06;100.00
35023;BME280;21214;44.912;8.204;2023-01-16T03:26:51;98492.31;;;0.29;100.00
35023;BME280;21214;44.912;8.204;2023-01-16T03:36:56;98494.34;;;0.36;100.00
35023;BME280;21214;44.912;8.204;2023-01-16T03:39:26;98481.94;;;0.29;100.00
35023;BME280;21214;44.912;8.204;2023-01-16T03:41:54;98480.88;;;0.31;100.00
35023;BME280;21214;44.912;8.204;2023-01-16T03:44:22;98479.53;;;0.38;100.00
35023;BME280;21214;44.912;8.204;2023-01-16T03:46:50;98468.22;;;0.39;100.00
35023;BME280;21214;44.912;8.204;2023-01-16T03:49:30;98459.50;;;0.40;100.00
35023;BME280;21214;44.912;8.204;2023-01-16T03:51:59;98455.50;;;0.48;100.00
35023;BME280;21214;44.912;8.204;2023-01-16T03:57:21;98446.09;;;0.47;100.00
35023;BME280;21214;44.912;8.204;2023-01-16T03:59:48;98430.19;;;0.51;100.00
35023;BME280;21214;44.912;8.204;2023-01-16T04:02:23;98420.50;;;0.53;100.00
35023;BME280;21214;44.912;8.204;2023-01-16T04:04:59;98420.63;;;0.52;100.00
35023;BME280;21214;44.912;8.204;2023-01-16T04:09:56;98417.00;;;0.41;100.00
35023;BME280;21214;44.912;8.204;2023-01-16T04:12:23;98410.06;;;0.42;100.00
35023;BME280;21214;44.912;8.204;2023-01-16T04:14:53;98401.97;;;0.47;100.00
35023;BME280;21214;44.912;8.204;2023-01-16T04:17:20;98409.75;;;0.47;100.00
35023;BME280;21214;44.912;8.204;2023-01-16T04:19:46;98419.19;;;0.48;100.00
35023;BME280;21214;44.912;8.204;2023-01-16T04:22:18;98424.78;;;0.41;100.00
35023;BME280;21214;44.912;8.204;2023-01-16T04:24:44;98416.91;;;0.43;100.00
35023;BME280;21214;44.912;8.204;2023-01-16T04:27:10;98416.31;;;0.39;100.00
35023;BME280;21214;44.912;8.204;2023-01-16T04:29:35;98402.41;;;0.40;100.00
35023;BME280;21214;44.912;8.204;2023-01-16T04:32:01;98400.94;;;0.36;100.00
35023;BME280;21214;44.912;8.204;2023-01-16T04:34:26;98397.41;;;0.37;100.00
35023;BME280;21214;44.912;8.204;2023-01-16T04:36:52;98394.81;;;0.37;100.00
35023;BME280;21214;44.912;8.204;2023-01-16T04:39:17;98392.44;;;0.34;100.00
35023;BME280;21214;44.912;8.204;2023-01-16T04:41:43;98389.56;;;0.26;100.00
35023;BME280;21214;44.912;8.204;2023-01-16T04:44:12;98384.34;;;0.26;100.00
35023;BME280;21214;44.912;8.204;2023-01-16T04:46:38;98380.84;;;0.27;100.00
35023;BME280;21214;44.912;8.204;2023-01-16T04:49:03;98376.16;;;0.32;100.00
35023;BME280;21214;44.912;8.204;2023-01-16T04:51:29;98376.16;;;0.32;100.00
35023;BME280;21214;44.912;8.204;2023-01-16T04:53:55;98378.16;;;0.16;100.00
35023;BME280;21214;44.912;8.204;2023-01-16T04:56:21;98376.19;;;0.07;100.00
35023;BME280;21214;44.912;8.204;2023-01-16T04:58:47;98369.56;;;0.03;100.00
35023;BME280;21214;44.912;8.204;2023-01-16T05:01:16;98365.31;;;0.02;100.00
35023;BME280;21214;44.912;8.204;2023-01-16T05:03:42;98362.72;;;0.02;100.00
35023;BME280;21214;44.912;8.204;2023-01-16T05:06:07;98360.75;;;0.06;100.00
35023;BME280;21214;44.912;8.204;2023-01-16T05:08:32;98371.72;;;0.09;100.00
35023;BME280;21214;44.912;8.204;2023-01-16T05:10:58;98362.00;;;0.00;100.00
35023;BME280;21214;44.912;8.204;2023-01-16T05:13:26;98368.31;;;-0.04;100.00
35023;BME280;21214;44.912;8.204;2023-01-16T05:15:52;98368.63;;;0.04;100.00
35023;BME280;21214;44.912;8.204;2023-01-16T05:18:17;98366.97;;;0.03;100.00
35023;BME280;21214;44.912;8.204;2023-01-16T05:20:43;98360.22;;;0.00;100.00
35023;BME280;21214;44.912;8.204;2023-01-16T05:23:08;98345.28;;;0.04;100.00
35023;BME280;21214;44.912;8.204;2023-01-16T05:25:37;98342.28;;;0.10;100.00
35023;BME280;21214;44.912;8.204;2023-01-16T05:28:02;98338.75;;;0.11;100.00
35023;BME280;21214;44.912;8.204;2023-01-16T05:30:28;98319.63;;;0.12;100.00
35023;BME280;21214;44.912;8.204;2023-01-16T05:32:54;98327.22;;;0.15;100.00
35023;BME280;21214;44.912;8.204;2023-01-16T05:35:19;98331.03;;;0.22;100.00
35023;BME280;21214;44.912;8.204;2023-01-16T05:37:45;98336.00;;;0.25;100.00
35023;BME280;21214;44.912;8.204;2023-01-16T05:40:11;98332.28;;;0.29;100.00
35023;BME280;21214;44.912;8.204;2023-01-16T05:42:36;98314.59;;;0.34;100.00
35023;BME280;21214;44.912;8.204;2023-01-16T05:45:02;98310.59;;;0.41;100.00
35023;BME280;21214;44.912;8.204;2023-01-16T05:47:27;98316.31;;;0.47;100.00
35023;BME280;21214;44.912;8.204;2023-01-16T05:49:53;98316.00;;;0.51;100.00
35023;BME280;21214;44.912;8.204;2023-01-16T05:52:18;98306.19;;;0.55;100.00
35023;BME280;21214;44.912;8.204;2023-01-16T05:54:44;98294.16;;;0.54;100.00
35023;BME280;21214;44.912;8.204;2023-01-16T05:57:09;98286.06;;;0.58;100.00
35023;BME280;21214;44.912;8.204;2023-01-16T05:59:35;98291.34;;;0.57;100.00
35023;BME280;21214;44.912;8.204;2023-01-16T06:02:00;98280.47;;;0.52;100.00
35023;BME280;21214;44.912;8.204;2023-01-16T06:04:26;98283.41;;;0.47;100.00
35023;BME280;21214;44.912;8.204;2023-01-16T06:06:51;98286.31;;;0.43;100.00
35023;BME280;21214;44.912;8.204;2023-01-16T06:09:16;98275.84;;;0.44;100.00
35023;BME280;21214;44.912;8.204;2023-01-16T06:11:42;98265.34;;;0.46;100.00
35023;BME280;21214;44.912;8.204;2023-01-16T06:14:07;98261.59;;;0.50;100.00
35023;BME280;21214;44.912;8.204;2023-01-16T06:16:33;98251.00;;;0.53;100.00
35023;BME280;21214;44.912;8.204;2023-01-16T06:18:59;98246.06;;;0.61;100.00
35023;BME280;21214;44.912;8.204;2023-01-16T06:21:25;98234.72;;;0.62;100.00
35023;BME280;21214;44.912;8.204;2023-01-16T06:23:50;98242.41;;;0.63;100.00
35023;BME280;21214;44.912;8.204;2023-01-16T06:26:16;98240.41;;;0.67;100.00
35023;BME280;21214;44.912;8.204;2023-01-16T06:28:41;98231.22;;;0.74;100.00
35023;BME280;21214;44.912;8.204;2023-01-16T06:31:07;98234.31;;;0.79;100.00
35023;BME280;21214;44.912;8.204;2023-01-16T06:33:32;98226.31;;;0.82;100.00
35023;BME280;21214;44.912;8.204;2023-01-16T06:35:58;98224.41;;;0.84;100.00
35023;BME280;21214;44.912;8.204;2023-01-16T06:38:23;98220.88;;;0.85;100.00
35023;BME280;21214;44.912;8.204;2023-01-16T06:40:49;98215.47;;;0.88;100.00
35023;BME280;21214;44.912;8.204;2023-01-16T06:43:14;98223.75;;;0.93;100.00
35023;BME280;21214;44.912;8.204;2023-01-16T06:45:42;98232.22;;;0.95;100.00
35023;BME280;21214;44.912;8.204;2023-01-16T06:48:10;98224.91;;;1.00;100.00
35023;BME280;21214;44.912;8.204;2023-01-16T06:50:36;98226.34;;;1.04;100.00
35023;BME280;21214;44.912;8.204;2023-01-16T06:53:01;98231.31;;;1.07;100.00
35023;BME280;21214;44.912;8.204;2023-01-16T06:55:26;98220.59;;;1.12;100.00
35023;BME280;21214;44.912;8.204;2023-01-16T06:57:52;98237.69;;;1.14;100.00
35023;BME280;21214;44.912;8.204;2023-01-16T07:00:18;98223.75;;;1.15;100.00
35023;BME280;21214;44.912;8.204;2023-01-16T07:02:43;98219.41;;;1.16;100.00
35023;BME280;21214;44.912;8.204;2023-01-16T07:05:09;98213.38;;;1.15;100.00
35023;BME280;21214;44.912;8.204;2023-01-16T07:07:35;98203.19;;;1.12;100.00
35023;BME280;21214;44.912;8.204;2023-01-16T07:10:01;98198.00;;;1.12;100.00
35023;BME280;21214;44.912;8.204;2023-01-16T07:12:26;98203.91;;;1.14;100.00
35023;BME280;21214;44.912;8.204;2023-01-16T07:14:51;98199.19;;;1.19;100.00
35023;BME280;21214;44.912;8.204;2023-01-16T07:17:36;98192.34;;;1.18;100.00
35023;BME280;21214;44.912;8.204;2023-01-16T07:20:20;98179.97;;;1.22;100.00
35023;BME280;21214;44.912;8.204;2023-01-16T07:23:20;98166.72;;;1.25;100.00
35023;BME280;21214;44.912;8.204;2023-01-16T07:25:46;98165.88;;;1.24;100.00
35023;BME280;21214;44.912;8.204;2023-01-16T07:28:11;98178.66;;;1.28;100.00
35023;BME280;21214;44.912;8.204;2023-01-16T07:30:37;98165.41;;;1.31;100.00
35023;BME280;21214;44.912;8.204;2023-01-16T07:33:03;98156.00;;;1.30;100.00
35023;BME280;21214;44.912;8.204;2023-01-16T07:35:28;98142.50;;;1.36;100.00
35023;BME280;21214;44.912;8.204;2023-01-16T07:37:54;98149.94;;;1.40;100.00
35023;BME280;21214;44.912;8.204;2023-01-16T07:40:22;98161.75;;;1.44;100.00
35023;BME280;21214;44.912;8.204;2023-01-16T07:42:51;98172.63;;;1.38;100.00
35023;BME280;21214;44.912;8.204;2023-01-16T07:45:16;98184.56;;;1.30;100.00
35023;BME280;21214;44.912;8.204;2023-01-16T07:47:42;98192.47;;;1.28;100.00
35023;BME280;21214;44.912;8.204;2023-01-16T07:50:07;98193.78;;;1.22;100.00
35023;BME280;21214;44.912;8.204;2023-01-16T07:52:33;98185.50;;;1.17;100.00
35023;BME280;21214;44.912;8.204;2023-01-16T07:54:58;98166.59;;;1.15;100.00
35023;BME280;21214;44.912;8.204;2023-01-16T07:57:23;98144.16;;;1.14;100.00
35023;BME280;21214;44.912;8.204;2023-01-16T07:59:51;98125.88;;;1.16;100.00
35023;BME280;21214;44.912;8.204;2023-01-16T08:02:16;98134.25;;;0.97;100.00
35023;BME280;21214;44.912;8.204;2023-01-16T08:04:42;98138.25;;;0.79;100.00
35023;BME280;21214;44.912;8.204;2023-01-16T08:07:07;98136.38;;;0.81;100.00
35023;BME280;21214;44.912;8.204;2023-01-16T08:09:33;98134.81;;;0.78;100.00
35023;BME280;21214;44.912;8.204;2023-01-16T08:11:58;98134.91;;;0.77;100.00
35023;BME280;21214;44.912;8.204;2023-01-16T08:14:24;98138.25;;;0.79;100.00
35023;BME280;21214;44.912;8.204;2023-01-16T08:16:49;98154.28;;;0.73;100.00
35023;BME280;21214;44.912;8.204;2023-01-16T08:19:15;98147.69;;;0.69;100.00
35023;BME280;21214;44.912;8.204;2023-01-16T08:21:40;98122.19;;;0.63;100.00
35023;BME280;21214;44.912;8.204;2023-01-16T08:24:06;98126.53;;;0.62;100.00
35023;BME280;21214;44.912;8.204;2023-01-16T08:26:31;98124.41;;;0.67;100.00
35023;BME280;21214;44.912;8.204;2023-01-16T08:28:56;98111.09;;;0.72;100.00
35023;BME280;21214;44.912;8.204;2023-01-16T08:31:23;98112.28;;;0.79;100.00
35023;BME280;21214;44.912;8.204;2023-01-16T08:33:48;98115.13;;;0.76;100.00
35023;BME280;21214;44.912;8.204;2023-01-16T08:36:14;98099.03;;;0.71;100.00
35023;BME280;21214;44.912;8.204;2023-01-16T08:38:42;98090.56;;;0.69;100.00
35023;BME280;21214;44.912;8.204;2023-01-16T08:41:07;98090.56;;;0.69;100.00
35023;BME280;21214;44.912;8.204;2023-01-16T08:43:52;98087.72;;;0.72;100.00
35023;BME280;21214;44.912;8.204;2023-01-16T08:46:36;98085.38;;;0.80;100.00
35023;BME280;21214;44.912;8.204;2023-01-16T08:49:20;98087.03;;;0.81;100.00
35023;BME280;21214;44.912;8.204;2023-01-16T08:52:04;98073.78;;;0.84;100.00
35023;BME280;21214;44.912;8.204;2023-01-16T08:54:31;98078.31;;;0.82;100.00
35023;BME280;21214;44.912;8.204;2023-01-16T08:56:56;98075.44;;;0.85;100.00
35023;BME280;21214;44.912;8.204;2023-01-16T08:59:21;98076.38;;;0.84;100.00
35023;BME280;21214;44.912;8.204;2023-01-16T09:01:46;98068.59;;;0.84;100.00
35023;BME280;21214;44.912;8.204;2023-01-16T09:04:12;98063.31;;;0.86;100.00
35023;BME280;21214;44.912;8.204;2023-01-16T09:06:38;98063.88;;;0.89;100.00
35023;BME280;21214;44.912;8.204;2023-01-16T09:09:07;98061.06;;;0.92;100.00
35023;BME280;21214;44.912;8.204;2023-01-16T09:11:33;98075.22;;;0.88;100.00
35023;BME280;21214;44.912;8.204;2023-01-16T09:14:17;98072.28;;;0.93;100.00
35023;BME280;21214;44.912;8.204;2023-01-16T09:16:42;98066.00;;;0.95;100.00
35023;BME280;21214;44.912;8.204;2023-01-16T09:19:07;98064.38;;;0.94;100.00
35023;BME280;21214;44.912;8.204;2023-01-16T09:21:33;98065.88;;;0.97;100.00
35023;BME280;21214;44.912;8.204;2023-01-16T09:23:58;98073.09;;;0.93;100.00
35023;BME280;21214;44.912;8.204;2023-01-16T09:26:23;98079.22;;;0.92;100.00
35023;BME280;21214;44.912;8.204;2023-01-16T09:28:49;98088.53;;;0.95;100.00
35023;BME280;21214;44.912;8.204;2023-01-16T09:31:14;98091.97;;;0.95;100.00
35023;BME280;21214;44.912;8.204;2023-01-16T09:33:40;98080.63;;;0.96;100.00
35023;BME280;21214;44.912;8.204;2023-01-16T09:36:06;98079.69;;;0.97;100.00
35023;BME280;21214;44.912;8.204;2023-01-16T09:38:31;98072.03;;;0.96;100.00
35023;BME280;21214;44.912;8.204;2023-01-16T09:40:57;98064.59;;;0.91;100.00
35023;BME280;21214;44.912;8.204;2023-01-16T09:46:01;98054.69;;;0.85;100.00
35023;BME280;21214;44.912;8.204;2023-01-16T09:48:30;98041.47;;;0.88;100.00
35023;BME280;21214;44.912;8.204;2023-01-16T09:50:57;98042.88;;;0.92;100.00
35023;BME280;21214;44.912;8.204;2023-01-16T09:56:11;98042.88;;;0.81;100.00
35023;BME280;21214;44.912;8.204;2023-01-16T09:59:02;98028.97;;;0.82;100.00
35023;BME280;21214;44.912;8.204;2023-01-16T10:01:32;98023.53;;;0.85;100.00
35023;BME280;21214;44.912;8.204;2023-01-16T10:04:06;98022.31;;;0.89;100.00
35023;BME280;21214;44.912;8.204;2023-01-16T10:06:37;98024.59;;;0.94;100.00
35023;BME280;21214;44.912;8.204;2023-01-16T10:09:14;98016.53;;;0.97;100.00
35023;BME280;21214;44.912;8.204;2023-01-16T10:11:57;97998.00;;;1.01;100.00
35023;BME280;21214;44.912;8.204;2023-01-16T10:14:27;97994.91;;;1.07;100.00
35023;BME280;21214;44.912;8.204;2023-01-16T10:17:06;98008.84;;;0.95;100.00
35023;BME280;21214;44.912;8.204;2023-01-16T10:19:45;98016.53;;;0.97;100.00
35023;BME280;21214;44.912;8.204;2023-01-16T10:24:57;98012.19;;;0.97;100.00
35023;BME280;21214;44.912;8.204;2023-01-16T10:32:40;97975.56;;;1.11;100.00
35023;BME280;21214;44.912;8.204;2023-01-16T10:35:20;97958.56;;;0.96;100.00
35023;BME280;21214;44.912;8.204;2023-01-16T10:37:47;97957.88;;;0.94;100.00
35023;BME280;21214;44.912;8.204;2023-01-16T10:42:43;97942.75;;;0.99;100.00
35023;BME280;21214;44.912;8.204;2023-01-16T10:45:30;97937.56;;;0.99;100.00
35023;BME280;21214;44.912;8.204;2023-01-16T10:48:15;97931.16;;;1.03;100.00
35023;BME280;21214;44.912;8.204;2023-01-16T10:50:59;97940.13;;;1.10;100.00
35023;BME280;21214;44.912;8.204;2023-01-16T10:53:25;97924.44;;;1.01;100.00
35023;BME280;21214;44.912;8.204;2023-01-16T10:55:51;97910.38;;;1.03;100.00
35023;BME280;21214;44.912;8.204;2023-01-16T10:58:26;97913.31;;;1.10;100.00
35023;BME280;21214;44.912;8.204;2023-01-16T11:00:52;97921.97;;;0.99;100.00
35023;BME280;21214;44.912;8.204;2023-01-16T11:05:54;97933.75;;;1.03;100.00
35023;BME280;21214;44.912;8.204;2023-01-16T11:08:30;97919.56;;;1.07;100.00
35023;BME280;21214;44.912;8.204;2023-01-16T11:10:55;97916.47;;;1.13;100.00
35023;BME280;21214;44.912;8.204;2023-01-16T11:13:22;97906.53;;;1.18;100.00
35023;BME280;21214;44.912;8.204;2023-01-16T11:18:57;97897.56;;;1.22;100.00
35023;BME280;21214;44.912;8.204;2023-01-16T11:23:52;97875.34;;;1.30;100.00
35023;BME280;21214;44.912;8.204;2023-01-16T11:26:21;97851.69;;;1.33;100.00
35023;BME280;21214;44.912;8.204;2023-01-16T11:28:46;97824.63;;;1.35;100.00
35023;BME280;21214;44.912;8.204;2023-01-16T11:31:14;97820.00;;;1.39;100.00
35023;BME280;21214;44.912;8.204;2023-01-16T11:33:49;97829.88;;;1.45;100.00
35023;BME280;21214;44.912;8.204;2023-01-16T11:36:19;97839.34;;;1.46;100.00
35023;BME280;21214;44.912;8.204;2023-01-16T11:38:46;97848.63;;;1.48;100.00
35023;BME280;21214;44.912;8.204;2023-01-16T11:41:12;97831.25;;;1.49;100.00
35023;BME280;21214;44.912;8.204;2023-01-16T11:43:41;97826.06;;;1.49;100.00
35023;BME280;21214;44.912;8.204;2023-01-16T11:48:57;97811.88;;;1.53;100.00
35023;BME280;21214;44.912;8.204;2023-01-16T11:51:24;97804.75;;;1.55;100.00
35023;BME280;21214;44.912;8.204;2023-01-16T11:53:51;97813.25;;;1.57;100.00
35023;BME280;21214;44.912;8.204;2023-01-16T12:01:39;97807.44;;;1.44;100.00
35023;BME280;21214;44.912;8.204;2023-01-16T12:04:29;97776.00;;;1.47;100.00
35023;BME280;21214;44.912;8.204;2023-01-16T12:17:00;97753.03;;;1.52;100.00
35023;BME280;21214;44.912;8.204;2023-01-16T12:24:31;97721.03;;;1.61;100.00
35023;BME280;21214;44.912;8.204;2023-01-16T12:39:51;97704.69;;;1.70;100.00
35023;BME280;21214;44.912;8.204;2023-01-16T12:42:34;97692.09;;;1.75;100.00
35023;BME280;21214;44.912;8.204;2023-01-16T12:45:36;97687.66;;;1.66;100.00
35023;BME280;21214;44.912;8.204;2023-01-16T12:51:12;97683.88;;;1.70;100.00
35023;BME280;21214;44.912;8.204;2023-01-16T12:58:55;97660.88;;;1.75;100.00
35023;BME280;21214;44.912;8.204;2023-01-16T13:01:27;97663.63;;;1.83;100.00
35023;BME280;21214;44.912;8.204;2023-01-16T13:06:30;97661.31;;;1.90;100.00
35023;BME280;21214;44.912;8.204;2023-01-16T13:08:57;97664.47;;;1.93;100.00
35023;BME280;21214;44.912;8.204;2023-01-16T13:11:32;97674.88;;;1.93;100.00
35023;BME280;21214;44.912;8.204;2023-01-16T13:14:19;97675.13;;;1.90;100.00
35023;BME280;21214;44.912;8.204;2023-01-16T13:19:23;97675.00;;;2.01;100.00
35023;BME280;21214;44.912;8.204;2023-01-16T13:24:31;97660.81;;;2.05;100.00
35023;BME280;21214;44.912;8.204;2023-01-16T13:26:58;97671.88;;;2.08;100.00
35023;BME280;21214;44.912;8.204;2023-01-16T13:29:28;97673.81;;;2.05;100.00
35023;BME280;21214;44.912;8.204;2023-01-16T13:31:57;97681.88;;;2.12;100.00
35023;BME280;21214;44.912;8.204;2023-01-16T13:34:26;97671.63;;;2.11;100.00
35023;BME280;21214;44.912;8.204;2023-01-16T13:39:57;97659.84;;;2.16;100.00
35023;BME280;21214;44.912;8.204;2023-01-16T13:42:25;97656.28;;;2.17;100.00
35023;BME280;21214;44.912;8.204;2023-01-16T13:44:56;97654.34;;;2.19;100.00
35023;BME280;21214;44.912;8.204;2023-01-16T13:47:41;97655.19;;;2.20;100.00
35023;BME280;21214;44.912;8.204;2023-01-16T13:52:42;97630.66;;;2.32;100.00
35023;BME280;21214;44.912;8.204;2023-01-16T13:55:14;97632.00;;;2.36;100.00
35023;BME280;21214;44.912;8.204;2023-01-16T13:57:46;97611.06;;;2.37;100.00
35023;BME280;21214;44.912;8.204;2023-01-16T14:00:12;97604.22;;;2.46;100.00
35023;BME280;21214;44.912;8.204;2023-01-16T14:02:44;97617.63;;;2.51;100.00
35023;BME280;21214;44.912;8.204;2023-01-16T14:08:13;97609.97;;;2.59;100.00
35023;BME280;21214;44.912;8.204;2023-01-16T14:13:25;97611.56;;;2.70;100.00
35023;BME280;21214;44.912;8.204;2023-01-16T14:16:00;97607.84;;;2.72;100.00
35023;BME280;21214;44.912;8.204;2023-01-16T14:19:02;97611.81;;;2.76;100.00
35023;BME280;21214;44.912;8.204;2023-01-16T14:21:44;97615.09;;;2.78;100.00
35023;BME280;21214;44.912;8.204;2023-01-16T14:24:28;97604.97;;;2.75;100.00
35023;BME280;21214;44.912;8.204;2023-01-16T14:26:57;97596.47;;;2.73;100.00
35023;BME280;21214;44.912;8.204;2023-01-16T14:31:51;97615.81;;;2.71;100.00
35023;BME280;21214;44.912;8.204;2023-01-16T14:34:19;97624.44;;;2.71;100.00
35023;BME280;21214;44.912;8.204;2023-01-16T14:36:47;97619.50;;;2.68;100.00
35023;BME280;21214;44.912;8.204;2023-01-16T14:39:27;97625.41;;;2.70;100.00
35023;BME280;21214;44.912;8.204;2023-01-16T14:41:54;97621.81;;;2.71;100.00
35023;BME280;21214;44.912;8.204;2023-01-16T14:44:57;97612.91;;;2.74;100.00
35023;BME280;21214;44.912;8.204;2023-01-16T14:47:45;97612.09;;;2.73;100.00
35023;BME280;21214;44.912;8.204;2023-01-16T14:50:43;97607.72;;;2.74;100.00
35023;BME280;21214;44.912;8.204;2023-01-16T14:53:27;97607.56;;;2.75;100.00
35023;BME280;21214;44.912;8.204;2023-01-16T14:56:22;97613.31;;;2.79;100.00
35023;BME280;21214;44.912;8.204;2023-01-16T14:58:52;97623.72;;;2.79;100.00
35023;BME280;21214;44.912;8.204;2023-01-16T15:01:30;97621.94;;;2.79;100.00
35023;BME280;21214;44.912;8.204;2023-01-16T15:04:15;97614.81;;;2.81;100.00
35023;BME280;21214;44.912;8.204;2023-01-16T15:06:43;97612.50;;;2.78;100.00
35023;BME280;21214;44.912;8.204;2023-01-16T15:09:12;97612.63;;;2.77;100.00
35023;BME280;21214;44.912;8.204;2023-01-16T15:11:44;97617.31;;;2.73;100.00
35023;BME280;21214;44.912;8.204;2023-01-16T15:14:13;97625.13;;;2.73;100.00
35023;BME280;21214;44.912;8.204;2023-01-16T15:17:05;97626.06;;;2.72;100.00
35023;BME280;21214;44.912;8.204;2023-01-16T15:22:41;97614.88;;;2.62;100.00
35023;BME280;21214;44.912;8.204;2023-01-16T15:25:51;97616.50;;;2.63;100.00
35023;BME280;21214;44.912;8.204;2023-01-16T15:27:59;97610.47;;;2.63;100.00
35023;BME280;21214;44.912;8.204;2023-01-16T15:30:28;97609.66;;;2.62;100.00
35023;BME280;21214;44.912;8.204;2023-01-16T15:35:20;97610.47;;;2.63;100.00
35023;BME280;21214;44.912;8.204;2023-01-16T15:37:56;97606.38;;;2.60;100.00
35023;BME280;21214;44.912;8.204;2023-01-16T15:40:25;97593.22;;;2.62;100.00
35023;BME280;21214;44.912;8.204;2023-01-16T15:42:51;97589.13;;;2.59;100.00